DLH274 EDDS-EDDN
Flight info
| Callsign | DLH274 |
|---|---|
| Flight time | N/A |
| Altitude | 21000 |
| Route | DKB9B DKB N869 LETKU LETKU1V |
| Aircraft | A320/M-SDE3FGHIRWY/LB1 |
Departure
| Time | 2026-05-04 19:13 |
|---|---|
| Airport | Stuttgart Airport (EDDS) |
Arrival
| Time | N/A |
|---|---|
| Airport | Nuremberg Airport (EDDN) |
| Time | Latitude | Longitude | Altitude | Speed | Heading |
|---|---|---|---|---|---|
| 2026-05-04 18:39 | 48.68916 | 9.19587 | 1286 ft | 0 kts | 342° |
| 2026-05-04 19:00 | 48.68913 | 9.19589 | 1285 ft | 3 kts | 342° |
| 2026-05-04 19:01 | 48.68887 | 9.19598 | 1289 ft | 4 kts | 355° |
| 2026-05-04 19:01 | 48.68861 | 9.19596 | 1286 ft | 4 kts | 20° |
| 2026-05-04 19:01 | 48.68843 | 9.19576 | 1289 ft | 3 kts | 73° |
| 2026-05-04 19:01 | 48.68841 | 9.19566 | 1289 ft | 0 kts | 76° |
| 2026-05-04 19:04 | 48.68851 | 9.19628 | 1291 ft | 15 kts | 75° |
| 2026-05-04 19:04 | 48.68884 | 9.19796 | 1287 ft | 14 kts | 72° |
| 2026-05-04 19:04 | 48.68840 | 9.19891 | 1288 ft | 7 kts | 152° |
| 2026-05-04 19:05 | 48.68825 | 9.19981 | 1285 ft | 12 kts | 74° |
| 2026-05-04 19:05 | 48.68861 | 9.20163 | 1290 ft | 24 kts | 75° |
| 2026-05-04 19:05 | 48.68918 | 9.20461 | 1285 ft | 34 kts | 73° |
| 2026-05-04 19:05 | 48.68995 | 9.20848 | 1290 ft | 42 kts | 74° |
| 2026-05-04 19:06 | 48.69083 | 9.21303 | 1289 ft | 47 kts | 74° |
| 2026-05-04 19:06 | 48.69140 | 9.21625 | 1290 ft | 25 kts | 73° |
| 2026-05-04 19:06 | 48.69190 | 9.21893 | 1287 ft | 28 kts | 74° |
| 2026-05-04 19:06 | 48.69247 | 9.22191 | 1288 ft | 31 kts | 73° |
| 2026-05-04 19:07 | 48.69309 | 9.22512 | 1288 ft | 33 kts | 74° |
| 2026-05-04 19:07 | 48.69374 | 9.22860 | 1286 ft | 35 kts | 73° |
| 2026-05-04 19:07 | 48.69444 | 9.23227 | 1285 ft | 37 kts | 74° |
| 2026-05-04 19:07 | 48.69512 | 9.23579 | 1287 ft | 27 kts | 74° |
| 2026-05-04 19:08 | 48.69566 | 9.23872 | 1290 ft | 30 kts | 73° |
| 2026-05-04 19:08 | 48.69606 | 9.24071 | 1289 ft | 18 kts | 73° |
| 2026-05-04 19:08 | 48.69603 | 9.24163 | 1287 ft | 0 kts | 113° |
| 2026-05-04 19:09 | 48.69588 | 9.24214 | 1290 ft | 11 kts | 113° |
| 2026-05-04 19:09 | 48.69547 | 9.24289 | 1285 ft | 9 kts | 149° |
| 2026-05-04 19:09 | 48.69505 | 9.24312 | 1289 ft | 0 kts | 162° |
| 2026-05-04 19:10 | 48.69478 | 9.24323 | 1290 ft | 14 kts | 167° |
| 2026-05-04 19:11 | 48.69381 | 9.24277 | 1287 ft | 3 kts | 271° |
| 2026-05-04 19:11 | 48.69376 | 9.24245 | 1287 ft | 1 kts | 253° |
| 2026-05-04 19:11 | 48.69376 | 9.24242 | 1287 ft | 0 kts | 253° |
| 2026-05-04 19:12 | 48.69375 | 9.24239 | 1287 ft | 2 kts | 253° |
| 2026-05-04 19:12 | 48.69196 | 9.23282 | 1285 ft | 112 kts | 254° |
| 2026-05-04 19:12 | 48.68926 | 9.21849 | 1385 ft | 162 kts | 254° |
| 2026-05-04 19:13 | 48.68587 | 9.20208 | 2145 ft | 163 kts | 256° |
| 2026-05-04 19:13 | 48.68269 | 9.18538 | 2780 ft | 171 kts | 257° |
| 2026-05-04 19:13 | 48.67920 | 9.16683 | 3159 ft | 196 kts | 256° |
| 2026-05-04 19:13 | 48.67524 | 9.14607 | 3588 ft | 220 kts | 255° |
| 2026-05-04 19:14 | 48.67075 | 9.12234 | 4180 ft | 240 kts | 258° |
| 2026-05-04 19:14 | 48.67121 | 9.09714 | 4807 ft | 252 kts | 289° |
| 2026-05-04 19:14 | 48.67985 | 9.07416 | 4963 ft | 252 kts | 311° |
| 2026-05-04 19:14 | 48.69448 | 9.06022 | 5008 ft | 257 kts | 345° |
| 2026-05-04 19:15 | 48.71257 | 9.05437 | 5010 ft | 271 kts | 347° |
| 2026-05-04 19:15 | 48.73090 | 9.04697 | 5011 ft | 274 kts | 345° |
| 2026-05-04 19:15 | 48.74971 | 9.04334 | 5009 ft | 273 kts | 3° |
| 2026-05-04 19:15 | 48.76817 | 9.04939 | 5010 ft | 272 kts | 24° |
| 2026-05-04 19:16 | 48.78402 | 9.06481 | 5010 ft | 272 kts | 45° |
| 2026-05-04 19:16 | 48.79577 | 9.08721 | 5016 ft | 272 kts | 56° |
| 2026-05-04 19:16 | 48.80663 | 9.11074 | 5011 ft | 272 kts | 55° |
| 2026-05-04 19:16 | 48.81752 | 9.13423 | 5009 ft | 272 kts | 56° |
| 2026-05-04 19:17 | 48.82840 | 9.15768 | 5009 ft | 272 kts | 55° |
| 2026-05-04 19:17 | 48.83563 | 9.17324 | 5013 ft | 272 kts | 56° |
| 2026-05-04 19:17 | 48.84654 | 9.19670 | 5010 ft | 272 kts | 55° |
| 2026-05-04 19:17 | 48.85743 | 9.22015 | 5010 ft | 272 kts | 55° |
| 2026-05-04 19:18 | 48.86827 | 9.24354 | 5009 ft | 269 kts | 56° |
| 2026-05-04 19:18 | 48.87902 | 9.26680 | 5013 ft | 268 kts | 56° |
| 2026-05-04 19:18 | 48.88971 | 9.28991 | 5010 ft | 267 kts | 56° |
| 2026-05-04 19:18 | 48.90044 | 9.31314 | 5108 ft | 272 kts | 56° |
| 2026-05-04 19:19 | 48.91093 | 9.33743 | 6037 ft | 276 kts | 62° |
| 2026-05-04 19:19 | 48.91926 | 9.36390 | 6998 ft | 279 kts | 70° |
| 2026-05-04 19:19 | 48.92646 | 9.39160 | 7926 ft | 285 kts | 70° |
| 2026-05-04 19:19 | 48.93383 | 9.41998 | 8830 ft | 291 kts | 71° |
| 2026-05-04 19:20 | 48.94133 | 9.44897 | 9780 ft | 297 kts | 71° |
| 2026-05-04 19:20 | 48.94903 | 9.47876 | 10416 ft | 313 kts | 71° |
| 2026-05-04 19:20 | 48.95731 | 9.51093 | 10766 ft | 338 kts | 71° |
| 2026-05-04 19:20 | 48.96610 | 9.54500 | 11332 ft | 352 kts | 70° |
| 2026-05-04 19:21 | 48.97513 | 9.57994 | 12134 ft | 357 kts | 70° |
| 2026-05-04 19:21 | 48.98428 | 9.61536 | 12974 ft | 362 kts | 70° |
| 2026-05-04 19:21 | 48.99354 | 9.65127 | 13814 ft | 366 kts | 70° |
| 2026-05-04 19:21 | 49.00291 | 9.68762 | 14524 ft | 371 kts | 70° |
| 2026-05-04 19:22 | 49.01238 | 9.72441 | 15250 ft | 376 kts | 70° |
| 2026-05-04 19:22 | 49.02198 | 9.76169 | 15974 ft | 380 kts | 70° |
| 2026-05-04 19:22 | 49.03170 | 9.79950 | 16685 ft | 385 kts | 70° |
| 2026-05-04 19:22 | 49.04151 | 9.83778 | 17370 ft | 390 kts | 70° |
| 2026-05-04 19:23 | 49.05141 | 9.87656 | 18054 ft | 395 kts | 70° |
| 2026-05-04 19:23 | 49.06130 | 9.91538 | 18654 ft | 400 kts | 70° |
| 2026-05-04 19:23 | 49.07152 | 9.95566 | 19271 ft | 404 kts | 70° |
| 2026-05-04 19:23 | 49.08169 | 9.99582 | 19769 ft | 408 kts | 70° |
| 2026-05-04 19:24 | 49.09179 | 10.03576 | 19938 ft | 409 kts | 70° |
| 2026-05-04 19:24 | 49.10203 | 10.07632 | 19975 ft | 410 kts | 70° |
| 2026-05-04 19:24 | 49.11226 | 10.11698 | 19981 ft | 410 kts | 70° |
| 2026-05-04 19:24 | 49.12247 | 10.15770 | 19980 ft | 410 kts | 70° |
| 2026-05-04 19:25 | 49.13268 | 10.19826 | 19982 ft | 410 kts | 70° |
| 2026-05-04 19:25 | 49.14542 | 10.23725 | 19976 ft | 411 kts | 57° |
| 2026-05-04 19:25 | 49.16368 | 10.27080 | 19987 ft | 412 kts | 45° |
| 2026-05-04 19:25 | 49.18383 | 10.30194 | 19987 ft | 412 kts | 45° |
| 2026-05-04 19:26 | 49.20397 | 10.33308 | 19996 ft | 412 kts | 45° |
| 2026-05-04 19:26 | 49.22413 | 10.36431 | 19986 ft | 412 kts | 45° |
| 2026-05-04 19:26 | 49.24427 | 10.39552 | 19987 ft | 412 kts | 45° |
| 2026-05-04 19:26 | 49.26453 | 10.42664 | 19986 ft | 412 kts | 45° |
| 2026-05-04 19:27 | 49.28484 | 10.45760 | 19985 ft | 413 kts | 45° |
| 2026-05-04 19:27 | 49.30483 | 10.48803 | 19980 ft | 396 kts | 45° |
| 2026-05-04 19:27 | 49.32395 | 10.51722 | 19980 ft | 380 kts | 45° |
| 2026-05-04 19:27 | 49.34228 | 10.54524 | 19942 ft | 365 kts | 45° |
| 2026-05-04 19:28 | 49.36014 | 10.57263 | 19392 ft | 367 kts | 45° |
| 2026-05-04 19:28 | 49.37854 | 10.60099 | 18454 ft | 382 kts | 45° |
| 2026-05-04 19:28 | 49.39758 | 10.63035 | 17603 ft | 391 kts | 45° |
| 2026-05-04 19:28 | 49.41679 | 10.65990 | 17029 ft | 390 kts | 45° |
| 2026-05-04 19:29 | 49.43590 | 10.68927 | 16542 ft | 387 kts | 45° |
| 2026-05-04 19:29 | 49.45488 | 10.71843 | 16071 ft | 384 kts | 45° |
| 2026-05-04 19:29 | 49.47374 | 10.74736 | 15606 ft | 381 kts | 45° |